sensor_id;sensor_type;location;lat;lon;timestamp;P1;durP1;ratioP1;P2;durP2;ratioP2
15451;SDS011;7827;53.594;9.938;2023-06-04T00:01:09;0.60;;;0.60;;
15451;SDS011;7827;53.594;9.938;2023-06-04T00:03:42;0.70;;;0.70;;
15451;SDS011;7827;53.594;9.938;2023-06-04T00:06:10;0.70;;;0.70;;
15451;SDS011;7827;53.594;9.938;2023-06-04T00:08:39;0.60;;;0.60;;
15451;SDS011;7827;53.594;9.938;2023-06-04T00:11:07;0.60;;;0.60;;
15451;SDS011;7827;53.594;9.938;2023-06-04T00:13:35;0.60;;;0.60;;
15451;SDS011;7827;53.594;9.938;2023-06-04T00:16:04;0.63;;;0.63;;
15451;SDS011;7827;53.594;9.938;2023-06-04T00:18:34;0.70;;;0.70;;
15451;SDS011;7827;53.594;9.938;2023-06-04T00:21:02;0.60;;;0.60;;
15451;SDS011;7827;53.594;9.938;2023-06-04T00:23:31;0.60;;;0.60;;
15451;SDS011;7827;53.594;9.938;2023-06-04T00:25:59;0.60;;;0.60;;
15451;SDS011;7827;53.594;9.938;2023-06-04T00:28:28;0.60;;;0.60;;
15451;SDS011;7827;53.594;9.938;2023-06-04T00:30:56;0.60;;;0.60;;
15451;SDS011;7827;53.594;9.938;2023-06-04T00:33:24;0.60;;;0.60;;
15451;SDS011;7827;53.594;9.938;2023-06-04T00:35:54;0.60;;;0.60;;
15451;SDS011;7827;53.594;9.938;2023-06-04T00:38:22;0.70;;;0.70;;
15451;SDS011;7827;53.594;9.938;2023-06-04T00:40:51;0.60;;;0.60;;
15451;SDS011;7827;53.594;9.938;2023-06-04T00:43:19;0.65;;;0.65;;
15451;SDS011;7827;53.594;9.938;2023-06-04T00:45:51;0.70;;;0.70;;
15451;SDS011;7827;53.594;9.938;2023-06-04T00:48:20;0.70;;;0.70;;
15451;SDS011;7827;53.594;9.938;2023-06-04T00:50:49;0.60;;;0.60;;
15451;SDS011;7827;53.594;9.938;2023-06-04T00:53:20;0.70;;;0.70;;
15451;SDS011;7827;53.594;9.938;2023-06-04T00:55:51;0.65;;;0.65;;
15451;SDS011;7827;53.594;9.938;2023-06-04T00:58:19;0.70;;;0.70;;
15451;SDS011;7827;53.594;9.938;2023-06-04T01:00:47;0.70;;;0.70;;
15451;SDS011;7827;53.594;9.938;2023-06-04T01:03:17;0.60;;;0.60;;
15451;SDS011;7827;53.594;9.938;2023-06-04T01:05:55;0.70;;;0.70;;
15451;SDS011;7827;53.594;9.938;2023-06-04T01:08:33;0.60;;;0.60;;
15451;SDS011;7827;53.594;9.938;2023-06-04T01:11:02;0.60;;;0.60;;
15451;SDS011;7827;53.594;9.938;2023-06-04T01:13:31;0.60;;;0.60;;
15451;SDS011;7827;53.594;9.938;2023-06-04T01:15:59;0.60;;;0.60;;
15451;SDS011;7827;53.594;9.938;2023-06-04T01:18:29;0.60;;;0.60;;
15451;SDS011;7827;53.594;9.938;2023-06-04T01:21:06;0.70;;;0.70;;
15451;SDS011;7827;53.594;9.938;2023-06-04T01:23:44;0.60;;;0.60;;
15451;SDS011;7827;53.594;9.938;2023-06-04T01:26:23;0.60;;;0.60;;
15451;SDS011;7827;53.594;9.938;2023-06-04T01:28:53;0.70;;;0.70;;
15451;SDS011;7827;53.594;9.938;2023-06-04T01:31:23;0.60;;;0.60;;
15451;SDS011;7827;53.594;9.938;2023-06-04T01:33:52;0.70;;;0.70;;
15451;SDS011;7827;53.594;9.938;2023-06-04T01:36:22;0.60;;;0.60;;
15451;SDS011;7827;53.594;9.938;2023-06-04T01:38:52;0.60;;;0.60;;
15451;SDS011;7827;53.594;9.938;2023-06-04T01:41:20;0.70;;;0.70;;
15451;SDS011;7827;53.594;9.938;2023-06-04T01:43:48;0.70;;;0.70;;
15451;SDS011;7827;53.594;9.938;2023-06-04T01:46:17;0.60;;;0.60;;
15451;SDS011;7827;53.594;9.938;2023-06-04T01:48:45;0.60;;;0.60;;
15451;SDS011;7827;53.594;9.938;2023-06-04T01:51:15;0.60;;;0.60;;
15451;SDS011;7827;53.594;9.938;2023-06-04T01:53:43;0.70;;;0.70;;
15451;SDS011;7827;53.594;9.938;2023-06-04T01:56:13;0.60;;;0.60;;
15451;SDS011;7827;53.594;9.938;2023-06-04T01:58:42;0.70;;;0.70;;
15451;SDS011;7827;53.594;9.938;2023-06-04T02:01:10;0.60;;;0.60;;
15451;SDS011;7827;53.594;9.938;2023-06-04T02:03:38;0.70;;;0.70;;
15451;SDS011;7827;53.594;9.938;2023-06-04T02:06:07;0.70;;;0.70;;
15451;SDS011;7827;53.594;9.938;2023-06-04T02:08:35;0.60;;;0.60;;
15451;SDS011;7827;53.594;9.938;2023-06-04T02:11:06;0.60;;;0.60;;
15451;SDS011;7827;53.594;9.938;2023-06-04T02:13:36;0.70;;;0.70;;
15451;SDS011;7827;53.594;9.938;2023-06-04T02:16:05;0.60;;;0.60;;
15451;SDS011;7827;53.594;9.938;2023-06-04T02:18:33;0.60;;;0.60;;
15451;SDS011;7827;53.594;9.938;2023-06-04T02:21:02;0.70;;;0.70;;
15451;SDS011;7827;53.594;9.938;2023-06-04T02:23:31;0.70;;;0.70;;
15451;SDS011;7827;53.594;9.938;2023-06-04T02:25:59;0.65;;;0.65;;
15451;SDS011;7827;53.594;9.938;2023-06-04T02:28:28;0.60;;;0.60;;
15451;SDS011;7827;53.594;9.938;2023-06-04T02:30:57;0.60;;;0.60;;
15451;SDS011;7827;53.594;9.938;2023-06-04T02:33:26;0.73;;;0.73;;
15451;SDS011;7827;53.594;9.938;2023-06-04T02:35:54;0.60;;;0.60;;
15451;SDS011;7827;53.594;9.938;2023-06-04T02:38:23;0.60;;;0.60;;
15451;SDS011;7827;53.594;9.938;2023-06-04T02:40:51;0.70;;;0.70;;
15451;SDS011;7827;53.594;9.938;2023-06-04T02:43:20;0.70;;;0.70;;
15451;SDS011;7827;53.594;9.938;2023-06-04T02:45:48;0.70;;;0.70;;
15451;SDS011;7827;53.594;9.938;2023-06-04T02:48:18;0.70;;;0.70;;
15451;SDS011;7827;53.594;9.938;2023-06-04T02:50:46;0.70;;;0.70;;
15451;SDS011;7827;53.594;9.938;2023-06-04T02:53:15;0.70;;;0.70;;
15451;SDS011;7827;53.594;9.938;2023-06-04T02:55:43;0.60;;;0.60;;
15451;SDS011;7827;53.594;9.938;2023-06-04T02:58:11;0.70;;;0.70;;
15451;SDS011;7827;53.594;9.938;2023-06-04T03:00:40;0.60;;;0.60;;
15451;SDS011;7827;53.594;9.938;2023-06-04T03:03:09;0.70;;;0.70;;
15451;SDS011;7827;53.594;9.938;2023-06-04T03:05:38;0.70;;;0.70;;
15451;SDS011;7827;53.594;9.938;2023-06-04T03:08:09;0.70;;;0.70;;
15451;SDS011;7827;53.594;9.938;2023-06-04T03:10:38;0.60;;;0.60;;
15451;SDS011;7827;53.594;9.938;2023-06-04T03:13:06;0.60;;;0.60;;
15451;SDS011;7827;53.594;9.938;2023-06-04T03:15:34;0.60;;;0.60;;
15451;SDS011;7827;53.594;9.938;2023-06-04T03:18:05;0.60;;;0.60;;
15451;SDS011;7827;53.594;9.938;2023-06-04T03:20:33;0.70;;;0.70;;
15451;SDS011;7827;53.594;9.938;2023-06-04T03:23:06;0.70;;;0.70;;
15451;SDS011;7827;53.594;9.938;2023-06-04T03:25:34;0.70;;;0.70;;
15451;SDS011;7827;53.594;9.938;2023-06-04T03:28:03;0.70;;;0.70;;
15451;SDS011;7827;53.594;9.938;2023-06-04T03:30:32;0.68;;;0.68;;
15451;SDS011;7827;53.594;9.938;2023-06-04T03:33:03;0.70;;;0.70;;
15451;SDS011;7827;53.594;9.938;2023-06-04T03:35:32;0.60;;;0.60;;
15451;SDS011;7827;53.594;9.938;2023-06-04T03:38:01;0.70;;;0.70;;
15451;SDS011;7827;53.594;9.938;2023-06-04T03:40:31;0.60;;;0.60;;
15451;SDS011;7827;53.594;9.938;2023-06-04T03:43:02;0.70;;;0.70;;
15451;SDS011;7827;53.594;9.938;2023-06-04T03:45:31;0.60;;;0.60;;
15451;SDS011;7827;53.594;9.938;2023-06-04T03:48:00;0.70;;;0.70;;
15451;SDS011;7827;53.594;9.938;2023-06-04T03:50:29;0.70;;;0.70;;
15451;SDS011;7827;53.594;9.938;2023-06-04T03:52:59;0.60;;;0.60;;
15451;SDS011;7827;53.594;9.938;2023-06-04T03:55:29;0.70;;;0.70;;
15451;SDS011;7827;53.594;9.938;2023-06-04T03:58:00;0.70;;;0.70;;
15451;SDS011;7827;53.594;9.938;2023-06-04T04:00:29;0.60;;;0.60;;
15451;SDS011;7827;53.594;9.938;2023-06-04T04:03:00;0.60;;;0.60;;
15451;SDS011;7827;53.594;9.938;2023-06-04T04:05:30;0.70;;;0.70;;
15451;SDS011;7827;53.594;9.938;2023-06-04T04:07:58;0.70;;;0.70;;
15451;SDS011;7827;53.594;9.938;2023-06-04T04:10:31;0.60;;;0.60;;
15451;SDS011;7827;53.594;9.938;2023-06-04T04:13:01;0.60;;;0.60;;
15451;SDS011;7827;53.594;9.938;2023-06-04T04:15:33;0.60;;;0.60;;
15451;SDS011;7827;53.594;9.938;2023-06-04T04:18:03;0.70;;;0.70;;
15451;SDS011;7827;53.594;9.938;2023-06-04T04:20:35;0.57;;;0.57;;
15451;SDS011;7827;53.594;9.938;2023-06-04T04:23:07;0.60;;;0.60;;
15451;SDS011;7827;53.594;9.938;2023-06-04T04:25:38;0.60;;;0.60;;
15451;SDS011;7827;53.594;9.938;2023-06-04T04:28:07;0.57;;;0.57;;
15451;SDS011;7827;53.594;9.938;2023-06-04T04:30:37;0.50;;;0.50;;
15451;SDS011;7827;53.594;9.938;2023-06-04T04:33:07;0.55;;;0.55;;
15451;SDS011;7827;53.594;9.938;2023-06-04T04:35:42;0.50;;;0.50;;
15451;SDS011;7827;53.594;9.938;2023-06-04T04:38:15;0.50;;;0.50;;
15451;SDS011;7827;53.594;9.938;2023-06-04T04:40:52;0.50;;;0.50;;
15451;SDS011;7827;53.594;9.938;2023-06-04T04:43:29;0.50;;;0.50;;
15451;SDS011;7827;53.594;9.938;2023-06-04T04:46:21;0.60;;;0.60;;
15451;SDS011;7827;53.594;9.938;2023-06-04T04:48:51;0.60;;;0.60;;
15451;SDS011;7827;53.594;9.938;2023-06-04T04:51:19;0.60;;;0.60;;
15451;SDS011;7827;53.594;9.938;2023-06-04T04:53:50;0.60;;;0.60;;
15451;SDS011;7827;53.594;9.938;2023-06-04T04:56:22;0.60;;;0.60;;
15451;SDS011;7827;53.594;9.938;2023-06-04T04:58:52;0.63;;;0.63;;
15451;SDS011;7827;53.594;9.938;2023-06-04T05:01:21;0.60;;;0.60;;
15451;SDS011;7827;53.594;9.938;2023-06-04T05:03:50;0.60;;;0.60;;
15451;SDS011;7827;53.594;9.938;2023-06-04T05:06:19;0.60;;;0.60;;
15451;SDS011;7827;53.594;9.938;2023-06-04T05:08:48;0.60;;;0.60;;
15451;SDS011;7827;53.594;9.938;2023-06-04T05:11:17;0.60;;;0.60;;
15451;SDS011;7827;53.594;9.938;2023-06-04T05:13:49;0.60;;;0.60;;
15451;SDS011;7827;53.594;9.938;2023-06-04T05:16:17;0.60;;;0.60;;
15451;SDS011;7827;53.594;9.938;2023-06-04T05:18:47;0.60;;;0.60;;
15451;SDS011;7827;53.594;9.938;2023-06-04T05:21:20;0.60;;;0.60;;
15451;SDS011;7827;53.594;9.938;2023-06-04T05:23:57;0.60;;;0.60;;
15451;SDS011;7827;53.594;9.938;2023-06-04T05:26:31;0.60;;;0.60;;
15451;SDS011;7827;53.594;9.938;2023-06-04T05:29:05;0.70;;;0.70;;
15451;SDS011;7827;53.594;9.938;2023-06-04T05:31:37;0.60;;;0.60;;
15451;SDS011;7827;53.594;9.938;2023-06-04T05:34:08;0.70;;;0.70;;
15451;SDS011;7827;53.594;9.938;2023-06-04T05:36:38;0.63;;;0.63;;
15451;SDS011;7827;53.594;9.938;2023-06-04T05:39:08;0.60;;;0.60;;
15451;SDS011;7827;53.594;9.938;2023-06-04T05:41:45;0.60;;;0.60;;
15451;SDS011;7827;53.594;9.938;2023-06-04T05:44:15;0.65;;;0.65;;
15451;SDS011;7827;53.594;9.938;2023-06-04T05:46:44;0.60;;;0.60;;
15451;SDS011;7827;53.594;9.938;2023-06-04T05:49:13;0.60;;;0.60;;
15451;SDS011;7827;53.594;9.938;2023-06-04T05:51:42;0.60;;;0.60;;
15451;SDS011;7827;53.594;9.938;2023-06-04T05:54:10;0.60;;;0.60;;
15451;SDS011;7827;53.594;9.938;2023-06-04T05:56:41;0.60;;;0.60;;
15451;SDS011;7827;53.594;9.938;2023-06-04T05:59:10;0.60;;;0.60;;
15451;SDS011;7827;53.594;9.938;2023-06-04T06:01:40;0.60;;;0.60;;
15451;SDS011;7827;53.594;9.938;2023-06-04T06:04:09;0.60;;;0.60;;
15451;SDS011;7827;53.594;9.938;2023-06-04T06:06:38;0.60;;;0.60;;
15451;SDS011;7827;53.594;9.938;2023-06-04T06:09:10;0.60;;;0.60;;
15451;SDS011;7827;53.594;9.938;2023-06-04T06:11:38;0.60;;;0.60;;
15451;SDS011;7827;53.594;9.938;2023-06-04T06:14:07;0.60;;;0.60;;
15451;SDS011;7827;53.594;9.938;2023-06-04T06:16:35;0.50;;;0.50;;
15451;SDS011;7827;53.594;9.938;2023-06-04T06:19:06;0.60;;;0.60;;
15451;SDS011;7827;53.594;9.938;2023-06-04T06:21:34;0.50;;;0.50;;
15451;SDS011;7827;53.594;9.938;2023-06-04T06:24:03;0.60;;;0.60;;
15451;SDS011;7827;53.594;9.938;2023-06-04T06:26:33;0.50;;;0.50;;
15451;SDS011;7827;53.594;9.938;2023-06-04T06:29:02;0.50;;;0.50;;
15451;SDS011;7827;53.594;9.938;2023-06-04T06:31:32;0.60;;;0.60;;
15451;SDS011;7827;53.594;9.938;2023-06-04T06:34:00;0.60;;;0.60;;
15451;SDS011;7827;53.594;9.938;2023-06-04T06:36:30;0.50;;;0.50;;
15451;SDS011;7827;53.594;9.938;2023-06-04T06:38:59;0.57;;;0.57;;
15451;SDS011;7827;53.594;9.938;2023-06-04T06:41:27;0.60;;;0.60;;
15451;SDS011;7827;53.594;9.938;2023-06-04T06:43:57;0.52;;;0.52;;
15451;SDS011;7827;53.594;9.938;2023-06-04T06:46:25;0.60;;;0.60;;
15451;SDS011;7827;53.594;9.938;2023-06-04T06:48:54;0.60;;;0.60;;
15451;SDS011;7827;53.594;9.938;2023-06-04T06:51:22;0.50;;;0.50;;
15451;SDS011;7827;53.594;9.938;2023-06-04T06:53:52;0.60;;;0.60;;
15451;SDS011;7827;53.594;9.938;2023-06-04T06:56:21;0.60;;;0.60;;
15451;SDS011;7827;53.594;9.938;2023-06-04T06:58:49;0.50;;;0.50;;
15451;SDS011;7827;53.594;9.938;2023-06-04T07:01:18;0.50;;;0.50;;
15451;SDS011;7827;53.594;9.938;2023-06-04T07:03:46;0.60;;;0.60;;
15451;SDS011;7827;53.594;9.938;2023-06-04T07:06:15;0.50;;;0.50;;
15451;SDS011;7827;53.594;9.938;2023-06-04T07:08:44;0.50;;;0.50;;
15451;SDS011;7827;53.594;9.938;2023-06-04T07:11:15;0.60;;;0.60;;
15451;SDS011;7827;53.594;9.938;2023-06-04T07:13:44;0.60;;;0.60;;
15451;SDS011;7827;53.594;9.938;2023-06-04T07:16:12;0.60;;;0.60;;
15451;SDS011;7827;53.594;9.938;2023-06-04T07:18:41;0.55;;;0.55;;
15451;SDS011;7827;53.594;9.938;2023-06-04T07:21:09;0.50;;;0.50;;
15451;SDS011;7827;53.594;9.938;2023-06-04T07:23:38;0.50;;;0.50;;
15451;SDS011;7827;53.594;9.938;2023-06-04T07:26:07;0.50;;;0.50;;
15451;SDS011;7827;53.594;9.938;2023-06-04T07:28:37;0.50;;;0.50;;
15451;SDS011;7827;53.594;9.938;2023-06-04T07:31:05;0.50;;;0.50;;
15451;SDS011;7827;53.594;9.938;2023-06-04T07:33:34;0.50;;;0.50;;
15451;SDS011;7827;53.594;9.938;2023-06-04T07:36:09;0.60;;;0.60;;
15451;SDS011;7827;53.594;9.938;2023-06-04T07:38:39;0.50;;;0.50;;
15451;SDS011;7827;53.594;9.938;2023-06-04T07:41:08;0.50;;;0.50;;
15451;SDS011;7827;53.594;9.938;2023-06-04T07:43:38;0.50;;;0.50;;
15451;SDS011;7827;53.594;9.938;2023-06-04T07:46:07;0.50;;;0.50;;
15451;SDS011;7827;53.594;9.938;2023-06-04T07:48:35;0.50;;;0.50;;
15451;SDS011;7827;53.594;9.938;2023-06-04T07:51:04;0.50;;;0.50;;
15451;SDS011;7827;53.594;9.938;2023-06-04T07:53:33;0.50;;;0.50;;
15451;SDS011;7827;53.594;9.938;2023-06-04T07:56:02;0.50;;;0.50;;
15451;SDS011;7827;53.594;9.938;2023-06-04T07:58:31;0.50;;;0.50;;
15451;SDS011;7827;53.594;9.938;2023-06-04T08:01:00;0.47;;;0.47;;
15451;SDS011;7827;53.594;9.938;2023-06-04T08:03:29;0.52;;;0.52;;
15451;SDS011;7827;53.594;9.938;2023-06-04T08:05:58;0.50;;;0.50;;
15451;SDS011;7827;53.594;9.938;2023-06-04T08:08:30;0.40;;;0.40;;
15451;SDS011;7827;53.594;9.938;2023-06-04T08:11:00;0.50;;;0.50;;
15451;SDS011;7827;53.594;9.938;2023-06-04T08:13:29;0.40;;;0.40;;
15451;SDS011;7827;53.594;9.938;2023-06-04T08:15:57;0.40;;;0.40;;
15451;SDS011;7827;53.594;9.938;2023-06-04T08:18:47;0.50;;;0.50;;
15451;SDS011;7827;53.594;9.938;2023-06-04T08:21:25;0.40;;;0.40;;
15451;SDS011;7827;53.594;9.938;2023-06-04T08:24:01;0.40;;;0.40;;
15451;SDS011;7827;53.594;9.938;2023-06-04T08:26:50;0.50;;;0.50;;
15451;SDS011;7827;53.594;9.938;2023-06-04T08:29:29;0.40;;;0.40;;
15451;SDS011;7827;53.594;9.938;2023-06-04T08:32:08;0.50;;;0.50;;
15451;SDS011;7827;53.594;9.938;2023-06-04T08:34:49;0.50;;;0.50;;
15451;SDS011;7827;53.594;9.938;2023-06-04T08:37:18;0.40;;;0.40;;
15451;SDS011;7827;53.594;9.938;2023-06-04T08:39:47;0.40;;;0.40;;
15451;SDS011;7827;53.594;9.938;2023-06-04T08:42:15;0.50;;;0.50;;
15451;SDS011;7827;53.594;9.938;2023-06-04T08:44:50;0.40;;;0.40;;
15451;SDS011;7827;53.594;9.938;2023-06-04T08:47:19;0.40;;;0.40;;
15451;SDS011;7827;53.594;9.938;2023-06-04T08:49:53;0.40;;;0.40;;
15451;SDS011;7827;53.594;9.938;2023-06-04T08:52:27;0.40;;;0.40;;
15451;SDS011;7827;53.594;9.938;2023-06-04T08:54:56;0.40;;;0.40;;
15451;SDS011;7827;53.594;9.938;2023-06-04T08:57:26;0.40;;;0.40;;
15451;SDS011;7827;53.594;9.938;2023-06-04T08:59:58;0.40;;;0.40;;
15451;SDS011;7827;53.594;9.938;2023-06-04T09:02:27;0.40;;;0.40;;
15451;SDS011;7827;53.594;9.938;2023-06-04T09:04:58;0.50;;;0.50;;
15451;SDS011;7827;53.594;9.938;2023-06-04T09:07:29;0.50;;;0.50;;
15451;SDS011;7827;53.594;9.938;2023-06-04T09:10:01;0.40;;;0.40;;
15451;SDS011;7827;53.594;9.938;2023-06-04T09:12:40;0.50;;;0.50;;
15451;SDS011;7827;53.594;9.938;2023-06-04T09:15:14;0.40;;;0.40;;
15451;SDS011;7827;53.594;9.938;2023-06-04T09:17:42;0.40;;;0.40;;
15451;SDS011;7827;53.594;9.938;2023-06-04T09:20:22;0.40;;;0.40;;
15451;SDS011;7827;53.594;9.938;2023-06-04T09:22:52;0.40;;;0.40;;
15451;SDS011;7827;53.594;9.938;2023-06-04T09:25:21;0.50;;;0.50;;
15451;SDS011;7827;53.594;9.938;2023-06-04T09:27:52;0.40;;;0.40;;
15451;SDS011;7827;53.594;9.938;2023-06-04T09:30:22;0.40;;;0.40;;
15451;SDS011;7827;53.594;9.938;2023-06-04T09:32:51;0.40;;;0.40;;
15451;SDS011;7827;53.594;9.938;2023-06-04T09:35:22;0.40;;;0.40;;
15451;SDS011;7827;53.594;9.938;2023-06-04T09:37:52;0.40;;;0.40;;
15451;SDS011;7827;53.594;9.938;2023-06-04T09:40:22;0.30;;;0.30;;
15451;SDS011;7827;53.594;9.938;2023-06-04T09:42:51;0.30;;;0.30;;
15451;SDS011;7827;53.594;9.938;2023-06-04T09:45:28;0.40;;;0.40;;
15451;SDS011;7827;53.594;9.938;2023-06-04T09:47:58;0.40;;;0.40;;
15451;SDS011;7827;53.594;9.938;2023-06-04T09:50:29;0.40;;;0.40;;
15451;SDS011;7827;53.594;9.938;2023-06-04T09:53:00;0.40;;;0.40;;
15451;SDS011;7827;53.594;9.938;2023-06-04T09:55:29;0.40;;;0.40;;
15451;SDS011;7827;53.594;9.938;2023-06-04T09:57:57;0.40;;;0.40;;
15451;SDS011;7827;53.594;9.938;2023-06-04T10:00:28;0.30;;;0.30;;
15451;SDS011;7827;53.594;9.938;2023-06-04T10:02:57;0.30;;;0.30;;
15451;SDS011;7827;53.594;9.938;2023-06-04T10:05:31;0.30;;;0.30;;
15451;SDS011;7827;53.594;9.938;2023-06-04T10:08:02;0.40;;;0.40;;
15451;SDS011;7827;53.594;9.938;2023-06-04T10:10:34;0.30;;;0.30;;
15451;SDS011;7827;53.594;9.938;2023-06-04T10:13:05;0.35;;;0.35;;
15451;SDS011;7827;53.594;9.938;2023-06-04T10:15:39;0.30;;;0.30;;
15451;SDS011;7827;53.594;9.938;2023-06-04T10:18:07;0.35;;;0.35;;
15451;SDS011;7827;53.594;9.938;2023-06-04T10:20:39;0.30;;;0.30;;
15451;SDS011;7827;53.594;9.938;2023-06-04T10:23:09;0.30;;;0.30;;
15451;SDS011;7827;53.594;9.938;2023-06-04T10:25:38;0.30;;;0.30;;
15451;SDS011;7827;53.594;9.938;2023-06-04T10:28:06;0.30;;;0.30;;
15451;SDS011;7827;53.594;9.938;2023-06-04T10:30:35;0.30;;;0.30;;
15451;SDS011;7827;53.594;9.938;2023-06-04T10:33:04;0.30;;;0.30;;
15451;SDS011;7827;53.594;9.938;2023-06-04T10:35:33;0.30;;;0.30;;
15451;SDS011;7827;53.594;9.938;2023-06-04T10:38:07;0.30;;;0.30;;
15451;SDS011;7827;53.594;9.938;2023-06-04T10:40:40;0.30;;;0.30;;
15451;SDS011;7827;53.594;9.938;2023-06-04T10:43:08;0.30;;;0.30;;
15451;SDS011;7827;53.594;9.938;2023-06-04T10:45:39;0.30;;;0.30;;
15451;SDS011;7827;53.594;9.938;2023-06-04T10:48:08;0.30;;;0.30;;
15451;SDS011;7827;53.594;9.938;2023-06-04T10:50:48;0.30;;;0.30;;
15451;SDS011;7827;53.594;9.938;2023-06-04T10:53:20;0.40;;;0.40;;
15451;SDS011;7827;53.594;9.938;2023-06-04T10:55:49;0.40;;;0.40;;
15451;SDS011;7827;53.594;9.938;2023-06-04T10:58:18;0.30;;;0.30;;
15451;SDS011;7827;53.594;9.938;2023-06-04T11:00:47;0.40;;;0.40;;
15451;SDS011;7827;53.594;9.938;2023-06-04T11:03:16;0.40;;;0.40;;
15451;SDS011;7827;53.594;9.938;2023-06-04T11:05:45;0.30;;;0.30;;
15451;SDS011;7827;53.594;9.938;2023-06-04T11:08:27;0.30;;;0.30;;
15451;SDS011;7827;53.594;9.938;2023-06-04T11:10:57;0.35;;;0.35;;
15451;SDS011;7827;53.594;9.938;2023-06-04T11:13:25;0.30;;;0.30;;
15451;SDS011;7827;53.594;9.938;2023-06-04T11:15:53;0.30;;;0.30;;
15451;SDS011;7827;53.594;9.938;2023-06-04T11:18:22;0.30;;;0.30;;
15451;SDS011;7827;53.594;9.938;2023-06-04T11:20:58;0.30;;;0.30;;
15451;SDS011;7827;53.594;9.938;2023-06-04T11:23:29;0.30;;;0.30;;
15451;SDS011;7827;53.594;9.938;2023-06-04T11:25:57;0.30;;;0.30;;
15451;SDS011;7827;53.594;9.938;2023-06-04T11:28:26;0.30;;;0.30;;
15451;SDS011;7827;53.594;9.938;2023-06-04T11:30:55;0.30;;;0.30;;
15451;SDS011;7827;53.594;9.938;2023-06-04T11:33:25;0.30;;;0.30;;
15451;SDS011;7827;53.594;9.938;2023-06-04T11:35:53;0.30;;;0.30;;
15451;SDS011;7827;53.594;9.938;2023-06-04T11:38:22;0.30;;;0.30;;
15451;SDS011;7827;53.594;9.938;2023-06-04T11:40:58;0.30;;;0.30;;
15451;SDS011;7827;53.594;9.938;2023-06-04T11:43:29;0.28;;;0.28;;
15451;SDS011;7827;53.594;9.938;2023-06-04T11:45:59;0.30;;;0.30;;
15451;SDS011;7827;53.594;9.938;2023-06-04T11:48:37;0.30;;;0.30;;
15451;SDS011;7827;53.594;9.938;2023-06-04T11:51:06;0.30;;;0.30;;
15451;SDS011;7827;53.594;9.938;2023-06-04T11:53:36;0.30;;;0.30;;
15451;SDS011;7827;53.594;9.938;2023-06-04T11:56:06;0.30;;;0.30;;
15451;SDS011;7827;53.594;9.938;2023-06-04T11:58:35;0.30;;;0.30;;
15451;SDS011;7827;53.594;9.938;2023-06-04T12:01:05;0.30;;;0.30;;
15451;SDS011;7827;53.594;9.938;2023-06-04T12:03:34;0.30;;;0.30;;
15451;SDS011;7827;53.594;9.938;2023-06-04T12:06:11;0.30;;;0.30;;
15451;SDS011;7827;53.594;9.938;2023-06-04T12:08:46;0.30;;;0.30;;
15451;SDS011;7827;53.594;9.938;2023-06-04T12:11:29;0.35;;;0.35;;
15451;SDS011;7827;53.594;9.938;2023-06-04T12:14:00;0.30;;;0.30;;
15451;SDS011;7827;53.594;9.938;2023-06-04T12:16:32;0.30;;;0.30;;
15451;SDS011;7827;53.594;9.938;2023-06-04T12:19:05;0.30;;;0.30;;
15451;SDS011;7827;53.594;9.938;2023-06-04T12:21:35;0.30;;;0.30;;
15451;SDS011;7827;53.594;9.938;2023-06-04T12:24:05;0.30;;;0.30;;
15451;SDS011;7827;53.594;9.938;2023-06-04T12:26:37;0.40;;;0.40;;
15451;SDS011;7827;53.594;9.938;2023-06-04T12:29:08;0.30;;;0.30;;
15451;SDS011;7827;53.594;9.938;2023-06-04T12:31:40;0.30;;;0.30;;
15451;SDS011;7827;53.594;9.938;2023-06-04T12:34:09;0.30;;;0.30;;
15451;SDS011;7827;53.594;9.938;2023-06-04T12:36:38;0.30;;;0.30;;
15451;SDS011;7827;53.594;9.938;2023-06-04T12:39:07;0.30;;;0.30;;
15451;SDS011;7827;53.594;9.938;2023-06-04T12:41:35;0.30;;;0.30;;
15451;SDS011;7827;53.594;9.938;2023-06-04T12:44:05;0.30;;;0.30;;
15451;SDS011;7827;53.594;9.938;2023-06-04T12:46:33;0.30;;;0.30;;
15451;SDS011;7827;53.594;9.938;2023-06-04T12:49:02;0.30;;;0.30;;
15451;SDS011;7827;53.594;9.938;2023-06-04T12:51:30;0.30;;;0.30;;
15451;SDS011;7827;53.594;9.938;2023-06-04T12:53:59;0.38;;;0.38;;
15451;SDS011;7827;53.594;9.938;2023-06-04T12:56:27;0.30;;;0.30;;
15451;SDS011;7827;53.594;9.938;2023-06-04T12:58:58;0.22;;;0.22;;
15451;SDS011;7827;53.594;9.938;2023-06-04T13:01:27;0.40;;;0.40;;
15451;SDS011;7827;53.594;9.938;2023-06-04T13:03:55;0.30;;;0.30;;
15451;SDS011;7827;53.594;9.938;2023-06-04T13:06:23;0.40;;;0.40;;
15451;SDS011;7827;53.594;9.938;2023-06-04T13:08:52;0.30;;;0.30;;
15451;SDS011;7827;53.594;9.938;2023-06-04T13:11:21;0.30;;;0.30;;
15451;SDS011;7827;53.594;9.938;2023-06-04T13:13:50;0.30;;;0.30;;
15451;SDS011;7827;53.594;9.938;2023-06-04T13:16:20;0.30;;;0.30;;
15451;SDS011;7827;53.594;9.938;2023-06-04T13:18:48;0.30;;;0.30;;
15451;SDS011;7827;53.594;9.938;2023-06-04T13:21:17;0.30;;;0.30;;
15451;SDS011;7827;53.594;9.938;2023-06-04T13:23:45;0.30;;;0.30;;
15451;SDS011;7827;53.594;9.938;2023-06-04T13:26:16;0.30;;;0.30;;
15451;SDS011;7827;53.594;9.938;2023-06-04T13:28:46;0.30;;;0.30;;
15451;SDS011;7827;53.594;9.938;2023-06-04T13:31:14;0.40;;;0.40;;
15451;SDS011;7827;53.594;9.938;2023-06-04T13:33:44;0.30;;;0.30;;
15451;SDS011;7827;53.594;9.938;2023-06-04T13:36:12;0.30;;;0.30;;
15451;SDS011;7827;53.594;9.938;2023-06-04T13:38:41;0.38;;;0.38;;
15451;SDS011;7827;53.594;9.938;2023-06-04T13:41:10;0.30;;;0.30;;
15451;SDS011;7827;53.594;9.938;2023-06-04T13:43:38;0.30;;;0.30;;
15451;SDS011;7827;53.594;9.938;2023-06-04T13:46:06;0.30;;;0.30;;
15451;SDS011;7827;53.594;9.938;2023-06-04T13:48:35;0.40;;;0.40;;
15451;SDS011;7827;53.594;9.938;2023-06-04T13:51:04;0.35;;;0.35;;
15451;SDS011;7827;53.594;9.938;2023-06-04T13:53:33;0.35;;;0.35;;
15451;SDS011;7827;53.594;9.938;2023-06-04T13:56:01;0.30;;;0.30;;
15451;SDS011;7827;53.594;9.938;2023-06-04T13:58:30;0.30;;;0.30;;
15451;SDS011;7827;53.594;9.938;2023-06-04T14:00:58;0.30;;;0.30;;
15451;SDS011;7827;53.594;9.938;2023-06-04T14:03:26;0.30;;;0.30;;
15451;SDS011;7827;53.594;9.938;2023-06-04T14:05:55;0.40;;;0.40;;
15451;SDS011;7827;53.594;9.938;2023-06-04T14:08:25;0.40;;;0.40;;
15451;SDS011;7827;53.594;9.938;2023-06-04T14:10:54;0.40;;;0.40;;
15451;SDS011;7827;53.594;9.938;2023-06-04T14:13:23;0.30;;;0.30;;
15451;SDS011;7827;53.594;9.938;2023-06-04T14:15:52;0.30;;;0.30;;
15451;SDS011;7827;53.594;9.938;2023-06-04T14:18:20;0.30;;;0.30;;
15451;SDS011;7827;53.594;9.938;2023-06-04T14:20:49;0.30;;;0.30;;
15451;SDS011;7827;53.594;9.938;2023-06-04T14:23:17;0.30;;;0.30;;
15451;SDS011;7827;53.594;9.938;2023-06-04T14:25:48;0.30;;;0.30;;
15451;SDS011;7827;53.594;9.938;2023-06-04T14:28:16;0.40;;;0.40;;
15451;SDS011;7827;53.594;9.938;2023-06-04T14:30:47;0.28;;;0.28;;
15451;SDS011;7827;53.594;9.938;2023-06-04T14:33:15;0.40;;;0.40;;
15451;SDS011;7827;53.594;9.938;2023-06-04T14:35:44;0.30;;;0.30;;
15451;SDS011;7827;53.594;9.938;2023-06-04T14:38:13;0.30;;;0.30;;
15451;SDS011;7827;53.594;9.938;2023-06-04T14:40:42;0.30;;;0.30;;
15451;SDS011;7827;53.594;9.938;2023-06-04T14:43:13;0.38;;;0.38;;
15451;SDS011;7827;53.594;9.938;2023-06-04T14:45:41;0.30;;;0.30;;
15451;SDS011;7827;53.594;9.938;2023-06-04T14:48:10;0.20;;;0.20;;
15451;SDS011;7827;53.594;9.938;2023-06-04T14:50:42;0.30;;;0.30;;
15451;SDS011;7827;53.594;9.938;2023-06-04T14:53:10;0.30;;;0.30;;
15451;SDS011;7827;53.594;9.938;2023-06-04T14:55:39;0.30;;;0.30;;
15451;SDS011;7827;53.594;9.938;2023-06-04T14:58:07;0.30;;;0.30;;
15451;SDS011;7827;53.594;9.938;2023-06-04T15:00:37;0.30;;;0.30;;
15451;SDS011;7827;53.594;9.938;2023-06-04T15:03:06;0.30;;;0.30;;
15451;SDS011;7827;53.594;9.938;2023-06-04T15:05:34;0.30;;;0.30;;
15451;SDS011;7827;53.594;9.938;2023-06-04T15:08:03;0.40;;;0.40;;
15451;SDS011;7827;53.594;9.938;2023-06-04T15:10:31;0.20;;;0.20;;
15451;SDS011;7827;53.594;9.938;2023-06-04T15:13:00;0.30;;;0.30;;
15451;SDS011;7827;53.594;9.938;2023-06-04T15:15:29;0.30;;;0.30;;
15451;SDS011;7827;53.594;9.938;2023-06-04T15:17:58;0.30;;;0.30;;